»·PEaware :: N716TH KMHV-KSBD

N716TH :: KMHV-KSBD

FLIGHT INFORMATION

Flight Status: Arrived
Operator: Privately registered:
United States
More flights under this callsign
Pilot: Danny R. (17997)
Aircraft: CESSNA 172 SKYHAWK
(C172)
More flights by this aircraft type
Origin: KMHV Mojave
United States
Destination: KSBD San Bernardino Intl
United States
More flights between these airports :: More routes between these airports
Route: KMHV PMD KSBD
File this flight plan on PilotEdge
Remarks:
Altitude:
(Current/Filed)
7,500ft
Speed:
(Current/Filed)
100kts
Departed: 07-Feb-18 01:42 PM
Arrived: 07-Feb-18 02:40 PM
Distance/Time
Traveled:
74nm/0:57
Distance/Time
To Go:
Arrived

Flight Plot

Page will automatically refresh every two minutes.

Flight plan parsing failed; only flown route is shown


Map Options




Map Legend


Flown Route
Filed Route
Departure Airport
Arrival Airport
Navaid (VOR, NDB)
Fix

Horizontal Profiles

Position Reports

Time Latitude Longitude Heading Altitude Ground
Speed
07-Feb-18 13:32 35.057243 -118.158045 269 2795ft 0kts
07-Feb-18 13:33 35.057243 -118.158045 269 2795ft 0kts
07-Feb-18 13:34 35.057243 -118.158045 270 2795ft 0kts
07-Feb-18 13:35 35.057243 -118.158045 270 2795ft 0kts
07-Feb-18 13:36 35.057243 -118.158045 270 2795ft 0kts
07-Feb-18 13:37 35.057243 -118.158045 270 2795ft 0kts
07-Feb-18 13:38 35.057243 -118.158045 270 2795ft 0kts
07-Feb-18 13:39 35.057243 -118.158045 270 2795ft 0kts
07-Feb-18 13:40 35.057388 -118.158180 25 2795ft 5kts
07-Feb-18 13:41 35.057604 -118.153146 86 2795ft 22kts
07-Feb-18 13:42 35.057583 -118.147792 91 2795ft 0kts
07-Feb-18 13:43 35.057583 -118.147792 91 2795ft 0kts
07-Feb-18 13:44 35.057583 -118.147792 91 2795ft 0kts
07-Feb-18 13:45 35.057583 -118.147792 91 2795ft 0kts
07-Feb-18 13:46 35.057583 -118.147792 91 2795ft 0kts
07-Feb-18 13:47 35.057582 -118.147757 92 2795ft 2kts
07-Feb-18 13:48 35.058250 -118.142630 2 2795ft 12kts
07-Feb-18 13:49 35.058561 -118.156879 273 3088ft 71kts
07-Feb-18 13:50 35.057626 -118.180278 272 3838ft 67kts
07-Feb-18 13:51 35.057271 -118.204739 271 4508ft 72kts
07-Feb-18 13:52 35.056133 -118.229816 274 5154ft 76kts
07-Feb-18 13:53 35.041762 -118.239744 145 5787ft 84kts
07-Feb-18 13:54 35.025693 -118.220572 122 6425ft 79kts
07-Feb-18 13:55 35.012898 -118.200106 119 7041ft 75kts
07-Feb-18 13:56 34.999494 -118.177615 118 7395ft 95kts
07-Feb-18 13:57 34.986020 -118.150177 122 7460ft 98kts
07-Feb-18 13:58 34.970057 -118.124905 117 7472ft 91kts
07-Feb-18 13:59 34.948606 -118.109276 160 7485ft 97kts
07-Feb-18 14:00 34.921866 -118.106536 188 7475ft 105kts
07-Feb-18 14:01 34.893544 -118.113375 174 7463ft 99kts
07-Feb-18 14:02 34.866491 -118.109911 166 7485ft 98kts
07-Feb-18 14:03 34.839296 -118.104914 170 7486ft 99kts
07-Feb-18 14:04 34.811599 -118.102586 171 7480ft 100kts
07-Feb-18 14:05 34.785350 -118.094344 161 7506ft 97kts
07-Feb-18 14:06 34.758564 -118.088349 163 7508ft 98kts
07-Feb-18 14:07 34.733085 -118.083118 163 7506ft 98kts
07-Feb-18 14:08 34.706220 -118.077622 163 7496ft 99kts
07-Feb-18 14:09 34.678980 -118.071475 167 7466ft 99kts
07-Feb-18 14:10 34.651768 -118.066396 163 7465ft 98kts
07-Feb-18 14:11 34.626521 -118.058003 118 7458ft 92kts
07-Feb-18 14:12 34.614548 -118.031019 117 7461ft 91kts
07-Feb-18 14:13 34.600848 -118.004903 118 7458ft 91kts
07-Feb-18 14:14 34.586798 -117.978728 117 7450ft 94kts
07-Feb-18 14:15 34.572419 -117.952050 117 7453ft 94kts
07-Feb-18 14:15 34.560439 -117.929888 117 7450ft 94kts
07-Feb-18 14:17 34.537993 -117.904588 145 7446ft 99kts
07-Feb-18 14:17 34.520863 -117.887118 126 7447ft 96kts
07-Feb-18 14:18 34.503815 -117.862407 122 7442ft 95kts
07-Feb-18 14:20 34.484653 -117.832866 122 7439ft 95kts
07-Feb-18 14:21 34.468362 -117.807634 123 7438ft 95kts
07-Feb-18 14:21 34.454613 -117.786660 122 7433ft 95kts
07-Feb-18 14:23 34.435535 -117.757131 122 7430ft 95kts
07-Feb-18 14:23 34.421916 -117.736016 122 7429ft 95kts
07-Feb-18 14:24 34.405641 -117.710781 122 7429ft 95kts
07-Feb-18 14:25 34.388751 -117.684860 124 7522ft 99kts
07-Feb-18 14:26 34.372423 -117.657447 120 7550ft 97kts
07-Feb-18 14:27 34.355743 -117.632054 127 7390ft 95kts
07-Feb-18 14:28 34.337737 -117.608689 129 7377ft 92kts
07-Feb-18 14:29 34.319948 -117.585078 125 7330ft 95kts
07-Feb-18 14:30 34.302963 -117.561370 122 7359ft 94kts
07-Feb-18 14:31 34.288892 -117.535103 113 7361ft 93kts
07-Feb-18 14:32 34.273658 -117.508582 120 7157ft 107kts
07-Feb-18 14:33 34.255090 -117.479730 121 6475ft 109kts
07-Feb-18 14:34 34.236385 -117.450927 122 5785ft 109kts
07-Feb-18 14:35 34.218010 -117.422703 121 5098ft 104kts
07-Feb-18 14:36 34.200928 -117.395459 120 4594ft 92kts
07-Feb-18 14:37 34.185409 -117.372340 134 4451ft 87kts
07-Feb-18 14:38 34.169219 -117.350186 129 3965ft 90kts
07-Feb-18 14:39 34.152845 -117.328278 134 3218ft 87kts
07-Feb-18 14:40 34.136679 -117.309050 135 2683ft 78kts
07-Feb-18 14:41 34.116936 -117.304663 184 2405ft 78kts
07-Feb-18 14:42 34.097145 -117.297608 158 2251ft 68kts
07-Feb-18 14:43 34.081244 -117.288402 115 1880ft 61kts
07-Feb-18 14:44 34.085453 -117.267858 68 1508ft 65kts
07-Feb-18 14:45 34.091269 -117.248419 69 1162ft 50kts
07-Feb-18 14:46 34.094878 -117.240440 35 1161ft 16kts
07-Feb-18 14:47 34.096878 -117.235774 69 1161ft 16kts
07-Feb-18 14:48 34.098630 -117.229800 66 1161ft 20kts
07-Feb-18 14:49 34.100140 -117.226273 49 1161ft 9kts
07-Feb-18 14:50 34.101331 -117.224435 133 1161ft 5kts
07-Feb-18 14:51 34.101219 -117.224417 195 1161ft 0kts

Navigation Log

Ident Type
Flight plan parsing failed, navigation log unavailable